• Join FlightAware (Why Join?)
  • Login
  • US Flag 
11:18AM EDT


 

Airport Tracker/Info


-or-


 

Live Flight TrackerFlight Track Log ✈ UAE757 ✈ 09-Oct-2013 ✈ OMDB / DXB - DAAG / ALG

Flight Track Log - Related Links

Times and Time Zones

All times are in EDT time to prevent confusion due to time zone crossing. See the UAE757 flight status page for this flight to view local times or setup timezone preferences in your user account.

Time Position Orientation Groundspeed Altitude Reporting Facility
EDT Latitude Longitude Course Direction KTS MPH feet Rate Location/Type
01:10AM 25.3381 55.1870 298° West  Level Estimated
01:16AM 25.3564 55.1478 298° West  Level Estimated
01:17AM 25.4071 55.0396 297° West  Level Estimated
01:18AM 25.4578 54.9314 297° West  Level Estimated
01:19AM 25.2520 55.3730 299° West 115 132  Level FlightAware
01:19AM 25.2600 55.3590 302° West 175 201 1,020 Level FlightAware
01:19AM 25.2680 55.3440 301° West 175 201 700 2,040 Climbing FlightAware
01:20AM 25.2770 55.3260 299° West 177 204 1,500 1,500 Climbing FlightAware
01:20AM 25.2830 55.3150 301° West 193 222 1,600 720 Climbing FlightAware
01:20AM 25.2940 55.2970 304° West 219 252 1,900 840 Climbing FlightAware
01:20AM 25.2970 55.2880 290° West 225 259 2,000 1,200 Climbing FlightAware
01:20AM 25.2980 55.2810 279° West 227 261 2,200 1,860 Climbing FlightAware
01:21AM 25.2960 55.2550 265° West 232 267 2,900 2,040 Climbing FlightAware
01:21AM 25.2930 55.2330 261° West 228 262 3,600 2,220 Climbing FlightAware
01:22AM 25.2890 55.2080 260° West 227 261 4,400 2,100 Climbing FlightAware
01:22AM 25.2840 55.1810 258° West 230 265 5,200 1,680 Climbing FlightAware
01:22AM 25.2820 55.1680 260° West 238 274 5,400 900 Climbing FlightAware
01:22AM 25.2770 55.1400 259° West 266 306 5,700 1,260 Climbing FlightAware
01:23AM 25.2740 55.1200 261° West 273 314 6,200 2,100 Climbing FlightAware
01:23AM 25.2700 55.0920 261° West 276 318 6,900 2,340 Climbing FlightAware
01:23AM 25.2650 55.0620 260° West 279 321 7,800 2,340 Climbing FlightAware
01:24AM 25.2610 55.0350 261° West 283 326 8,500 2,280 Climbing FlightAware
01:24AM 25.2570 55.0100 260° West 285 328 9,200 2,100 Climbing FlightAware
01:24AM 25.2520 54.9810 259° West 295 339 9,800 1,380 Climbing FlightAware
01:25AM 25.2450 54.9280 262° West 326 375 10,500 960 Climbing FlightAware
01:25AM 25.2490 54.9020 280° West 345 397 10,700 1,080 Climbing FlightAware
01:26AM 25.2700 54.8220 286° West 379 436 11,600 1,680 Climbing FlightAware
01:26AM 25.2860 54.7580 285° West 386 444 12,800 2,040 Climbing FlightAware
01:27AM 25.3030 54.6900 285° West 395 455 14,000 1,980 Climbing FlightAware
01:28AM 25.3220 54.6090 285° West 405 466 15,300 2,460 Climbing FlightAware
01:28AM 25.3370 54.5500 286° West 392 451 16,900 2,220 Climbing FlightAware
01:29AM 25.3540 54.4820 285° West 401 461 17,800 1,620 Climbing FlightAware
01:29AM 25.3710 54.4120 285° West 407 468 18,800 1,740 Climbing FlightAware
01:30AM 25.3880 54.3400 285° West 411 473 19,800 1,560 Climbing FlightAware
01:31AM 25.4080 54.2590 285° West 418 481 20,800 1,320 Climbing FlightAware
01:31AM 25.4230 54.1970 285° West 427 491 21,400 1,200 Climbing FlightAware
01:32AM 25.4410 54.1220 285° West 435 501 22,100 1,320 Climbing FlightAware
01:32AM 25.4620 54.0350 285° West 438 504 23,100 1,320 Climbing FlightAware
01:33AM 25.4840 53.9460 285° West 447 514 23,900 1,260 Climbing FlightAware
01:34AM 25.5020 53.8690 285° West 448 516 24,700 1,200 Climbing FlightAware
01:34AM 25.5220 53.7860 285° West 450 518 25,400 1,140 Climbing FlightAware
01:35AM 25.5410 53.7090 285° West 452 520 26,100 1,140 Climbing FlightAware
01:35AM 25.5580 53.6380 285° West 455 524 26,700 960 Climbing FlightAware
01:36AM 25.5780 53.5560 285° West 461 531 27,200 900 Climbing FlightAware
01:37AM 25.5970 53.4730 284° West 465 535 27,800 900 Climbing FlightAware
01:37AM 25.6170 53.3880 285° West 468 539 28,300 840 Climbing FlightAware
01:38AM 25.6340 53.3160 285° West 471 542 28,800 780 Climbing FlightAware
01:38AM 25.6540 53.2320 285° West 474 545 29,200 660 Climbing FlightAware
01:39AM 25.6750 53.1420 285° West 481 554 29,600 780 Climbing FlightAware
01:40AM 25.6950 53.0610 285° West 478 550 30,200 960 Climbing FlightAware
01:40AM 25.7210 52.9840 291° West 479 551 30,700 900 Climbing FlightAware
01:41AM 25.7560 52.9060 296° West 480 552 31,300 900 Climbing FlightAware
01:41AM 25.7950 52.8250 298° West 480 552 31,800 780 Climbing FlightAware
01:42AM 25.8280 52.7540 297° West 483 556 32,200 840 Climbing FlightAware
01:42AM 25.8640 52.6780 298° West 482 555 32,800 960 Climbing FlightAware
01:43AM 25.9020 52.5980 298° West 482 555 33,400 1,020 Climbing FlightAware
01:44AM 25.9350 52.5250 297° West 481 554 34,000 1,020 Climbing FlightAware
01:44AM 25.9680 52.4470 295° West 480 552 34,600 1,080 Climbing FlightAware
01:45AM 26.0040 52.3660 296° West 478 550 35,300 1,080 Climbing FlightAware
01:45AM 26.0400 52.2840 296° West 475 547 35,900 960 Climbing FlightAware
01:46AM 26.0800 52.1950 297° West 474 545 36,600 900 Climbing FlightAware
01:47AM 26.1140 52.1190 296° West 472 543 37,100 1,020 Climbing FlightAware
01:47AM 26.1470 52.0450 296° West 467 537 37,800 780 Climbing FlightAware
01:48AM 26.1800 51.9720 297° West 470 541 38,000 120 Climbing FlightAware
01:48AM 26.2150 51.8920 296° West 470 541 38,000  Level FlightAware
01:49AM 26.2450 51.8240 296° West 469 540 38,000  Level FlightAware
01:50AM 26.2800 51.7460 297° West 467 537 38,000  Level FlightAware
01:50AM 26.3150 51.6670 296° West 465 535 38,000  Level FlightAware
01:51AM 26.3500 51.5900 297° West 464 534 38,000  Level FlightAware
01:51AM 26.3790 51.5220 295° West 463 533 38,000  Level FlightAware
01:52AM 26.4060 51.4380 290° West 464 534 38,000  Level FlightAware
01:52AM 26.4270 51.3730 290° West 464 534 38,000  Level FlightAware
01:53AM 26.4540 51.2870 289° West 465 535 38,000  Level FlightAware
01:54AM 26.4810 51.2030 290° West 466 536 38,000  Level FlightAware
01:54AM 26.5140 51.1020 290° West 465 535 38,000  Level FlightAware
01:55AM 26.5340 51.0370 289° West 466 536 38,000  Level FlightAware
01:56AM 26.5640 50.9410 289° West 465 535 38,000  Level FlightAware
01:56AM 26.5860 50.8720 290° West 465 535 38,000  Level FlightAware
01:57AM 26.6110 50.7930 290° West 464 534 38,000  Level FlightAware
01:57AM 26.6360 50.7140 290° West 464 534 38,000  Level FlightAware
01:58AM 26.6610 50.6320 289° West 466 536 38,000  Level FlightAware
01:58AM 26.6750 50.5820 287° West 463 533 38,000  Level FlightAware
01:59AM 26.7010 50.4810 286° West 463 533 38,000  Level FlightAware
02:00AM 26.7350 50.3720 289° West 461 531 38,000  Level FlightAware
02:00AM 26.7510 50.3030 285° West 463 533 38,000  Level FlightAware
02:01AM 26.7550 50.2160 273° West 460 529 38,000  Level FlightAware
02:02AM 26.7540 50.0940 270° West 460 529 38,000  Level FlightAware
02:02AM 26.7540 50.0210 270° West 460 529 38,000  Level FlightAware
02:03AM 26.7540 49.9480 270° West 460 529 38,000  Level FlightAware
02:04AM 26.7540 49.8750 270° West 460 529 38,000  Level FlightAware
02:04AM 26.7540 49.8000 270° West 460 529 38,000  Level FlightAware
02:05AM 26.7540 49.7270 270° West 460 529 38,000  Level FlightAware
02:05AM 26.7540 49.6540 270° West 460 529 38,000  Level FlightAware
02:06AM 26.7350 49.5400 259° West 38,000  Level FlightAware
02:06AM 26.7330 49.4790 268° West 459 528 38,000  Level FlightAware
02:07AM 26.7300 49.3870 268° West 460 529 38,000  Level FlightAware
02:07AM 26.7270 49.2960 268° West 459 528 38,000  Level FlightAware
02:08AM 26.7250 49.2190 268° West 459 528 38,000  Level FlightAware
02:08AM 26.7210 49.1310 267° West 460 529 38,000  Level FlightAware
02:09AM 26.7180 49.0460 268° West 460 529 38,000  Level FlightAware
02:10AM 26.7160 48.9670 268° West 460 529 38,000  Level FlightAware
02:10AM 26.7120 48.8700 267° West 460 529 38,000  Level FlightAware
02:11AM 26.7090 48.7860 268° West 461 531 38,000  Level FlightAware
02:12AM 26.7050 48.6890 267° West 461 531 38,000  Level FlightAware
02:12AM 26.7010 48.5920 267° West 460 529 38,000  Level FlightAware
02:13AM 26.6980 48.5130 268° West 459 528 38,000  Level FlightAware
02:13AM 26.6950 48.4410 267° West 458 527 38,000  Level FlightAware
02:14AM 26.6910 48.3580 267° West 458 527 38,000  Level FlightAware
02:14AM 26.6880 48.2730 268° West 457 526 38,000  Level FlightAware
02:15AM 26.6840 48.1900 267° West 458 527 38,000  Level FlightAware
02:16AM 26.6800 48.1060 267° West 458 527 38,000  Level FlightAware
02:16AM 26.6770 48.0200 268° West 459 528 38,000  Level FlightAware
02:17AM 26.6800 47.9380 272° West 461 531 38,000  Level FlightAware
02:17AM 26.6910 47.8550 278° West 463 533 38,000  Level FlightAware
02:18AM 26.7050 47.7700 280° West 463 533 38,000  Level FlightAware
02:19AM 26.7180 47.6850 280° West 462 532 38,000  Level FlightAware
02:19AM 26.7310 47.6050 280° West 461 531 38,000  Level FlightAware
02:20AM 26.7440 47.5230 280° West 460 529 38,000  Level FlightAware
02:20AM 26.7550 47.4540 280° West 460 529 38,000  Level FlightAware
02:21AM 26.7690 47.3650 280° West 458 527 38,000  Level FlightAware
02:21AM 26.7810 47.2840 279° West 458 527 38,000  Level FlightAware
02:22AM 26.7940 47.2020 280° West 458 527 38,000  Level FlightAware
02:23AM 26.8060 47.1210 279° West 459 528 38,000  Level FlightAware
02:23AM 26.8210 47.0250 280° West 460 529 38,000  Level FlightAware
02:24AM 26.8320 46.9560 280° West 460 529 38,000  Level FlightAware
02:24AM 26.8440 46.8730 279° West 460 529 38,000  Level FlightAware
02:25AM 26.8590 46.7790 280° West 461 531 38,000  Level FlightAware
02:26AM 26.8690 46.7080 279° West 461 531 38,000  Level FlightAware
02:26AM 26.8820 46.6260 280° West 461 531 38,000  Level FlightAware
02:27AM 26.8940 46.5450 279° West 460 529 38,000  Level FlightAware
02:27AM 26.9060 46.4650 280° West 460 529 38,000  Level FlightAware
02:28AM 26.9180 46.3800 279° West 459 528 38,000  Level FlightAware
02:29AM 26.9330 46.2850 280° West 458 527 38,000  Level FlightAware
02:29AM 26.9430 46.2130 279° West 458 527 38,000  Level FlightAware
02:30AM 26.9550 46.1310 279° West 458 527 38,000  Level FlightAware
02:30AM 26.9670 46.0490 279° West 457 526 38,000  Level FlightAware
02:31AM 26.9790 45.9650 279° West 457 526 38,000  Level FlightAware
02:31AM 26.9910 45.8840 279° West 457 526 38,000  Level FlightAware
02:32AM 27.0030 45.8020 279° West 455 524 38,000  Level FlightAware
02:33AM 27.0140 45.7230 279° West 455 524 38,000  Level FlightAware
02:33AM 27.0270 45.6380 280° West 454 522 38,000  Level FlightAware
02:34AM 27.0370 45.5630 279° West 453 521 38,000  Level FlightAware
02:34AM 27.0490 45.4790 279° West 451 519 38,000  Level FlightAware
02:35AM 27.0600 45.3990 279° West 450 518 38,000  Level FlightAware
02:35AM 27.0690 45.3180 277° West 452 520 38,000  Level FlightAware
02:36AM 27.0790 45.2140 276° West 452 520 38,000  Level FlightAware
02:37AM 27.0860 45.1420 276° West 452 520 38,000  Level FlightAware
02:37AM 27.0930 45.0710 276° West 452 520 38,000  Level FlightAware
02:38AM 27.0990 44.9990 275° West 452 520 38,000  Level FlightAware
02:39AM 27.1060 44.9280 276° West 452 520 38,000  Level FlightAware
02:39AM 27.1130 44.8560 276° West 452 520 38,000  Level FlightAware
02:40AM 27.1190 44.7850 275° West 452 520 38,000  Level FlightAware
02:40AM 27.1260 44.7130 276° West 452 520 38,000  Level FlightAware
02:41AM 27.1330 44.6420 276° West 452 520 38,000  Level FlightAware
02:42AM 27.1390 44.5700 275° West 452 520 38,000  Level FlightAware
02:42AM 27.1460 44.4990 276° West 452 520 38,000  Level FlightAware
02:43AM 27.1530 44.4250 276° West 452 520 38,000  Level FlightAware
02:43AM 27.1600 44.3540 276° West 452 520 38,000  Level FlightAware
02:44AM 27.1660 44.2800 275° West 452 520 38,000  Level FlightAware
02:45AM 27.1730 44.2070 276° West 452 520 38,000  Level FlightAware
02:45AM 27.1800 44.1330 276° West 452 520 38,000  Level FlightAware
02:48AM 27.2779 43.9056 296° West  Level Estimated
02:49AM 27.3226 43.8013 296° West  Level Estimated
02:50AM 27.3672 43.6969 296° West  Level Estimated
02:51AM 27.4117 43.5924 296° West  Level Estimated
02:52AM 27.4562 43.4878 296° West  Level Estimated
02:53AM 27.5006 43.3832 296° West  Level Estimated
02:54AM 27.5449 43.2785 296° West  Level Estimated
02:55AM 27.5891 43.1737 295° West  Level Estimated
02:56AM 27.6333 43.0688 295° West  Level Estimated
02:57AM 27.6773 42.9638 295° West  Level Estimated
02:58AM 27.7213 42.8587 295° West  Level Estimated
02:59AM 27.7652 42.7536 295° West  Level Estimated
03:00AM 27.8091 42.6484 295° West  Level Estimated
03:01AM 27.8528 42.5430 295° West  Level Estimated
03:02AM 27.8965 42.4376 295° West  Level Estimated
03:03AM 27.9401 42.3321 295° West  Level Estimated
03:04AM 27.9836 42.2266 295° West  Level Estimated
03:05AM 28.0271 42.1209 295° West  Level Estimated
03:06AM 28.0704 42.0152 295° West  Level Estimated
03:07AM 28.1137 41.9094 295° West  Level Estimated
03:08AM 28.1569 41.8034 295° West  Level Estimated
03:09AM 28.2000 41.6974 295° West  Level Estimated
03:10AM 28.2430 41.5914 295° West  Level Estimated
03:11AM 28.2860 41.4852 295° West  Level Estimated
03:12AM 28.3288 41.3789 295° West  Level Estimated
03:13AM 28.3716 41.2726 295° West  Level Estimated
03:14AM 28.4143 41.1662 295° West  Level Estimated
03:15AM 28.4569 41.0597 294° West  Level Estimated
03:16AM 28.4995 40.9531 294° West  Level Estimated
03:17AM 28.5419 40.8464 294° West  Level Estimated
03:18AM 28.5843 40.7396 294° West  Level Estimated
03:19AM 28.6266 40.6328 294° West  Level Estimated
03:20AM 28.6688 40.5258 294° West  Level Estimated
03:21AM 28.7109 40.4188 294° West  Level Estimated
03:22AM 28.7529 40.3117 294° West  Level Estimated
03:23AM 28.7948 40.2045 294° West  Level Estimated
03:24AM 28.8367 40.0972 294° West  Level Estimated
03:25AM 28.8785 39.9898 294° West  Level Estimated
03:26AM 28.9202 39.8824 294° West  Level Estimated
03:27AM 28.9618 39.7748 294° West  Level Estimated
03:28AM 29.0033 39.6672 294° West  Level Estimated
03:29AM 29.0447 39.5594 294° West  Level Estimated
03:30AM 29.0861 39.4516 294° West  Level Estimated
03:31AM 29.1273 39.3438 294° West  Level Estimated
03:32AM 29.1685 39.2358 294° West  Level Estimated
03:33AM 29.2096 39.1277 294° West  Level Estimated
03:34AM 29.2506 39.0196 294° West  Level Estimated
03:35AM 29.2915 38.9113 293° West  Level Estimated
03:36AM 29.3324 38.8030 293° West  Level Estimated
03:37AM 29.3731 38.6946 293° West  Level Estimated
03:38AM 29.4137 38.5861 293° West  Level Estimated
03:39AM 29.4543 38.4775 293° West  Level Estimated
03:39AM 29.0950 37.2610 293° West 424 488 40,000  Level FlightAware
03:40AM 29.4948 38.3689 293° West  Level Estimated
03:40AM 29.0930 37.1930 268° West 424 488 40,000  Level FlightAware
03:41AM 29.0910 37.1240 268° West 424 488 40,000  Level FlightAware
03:41AM 29.0890 37.0550 268° West 424 488 40,000  Level FlightAware
03:42AM 29.0860 36.9870 267° West 424 488 40,000  Level FlightAware
03:42AM 29.0840 36.9180 268° West 424 488 40,000  Level FlightAware
03:43AM 29.0820 36.8490 268° West 424 488 40,000  Level FlightAware
03:44AM 29.0800 36.7810 268° West 424 488 40,000  Level FlightAware
03:44AM 29.0780 36.7120 268° West 424 488 40,000  Level FlightAware
03:45AM 29.0760 36.6430 268° West 424 488 40,000  Level FlightAware
03:45AM 29.0740 36.5750 268° West 424 488 40,000  Level FlightAware
03:46AM 29.0720 36.5060 268° West 424 488 40,000  Level FlightAware
03:47AM 29.0700 36.4380 268° West 424 488 40,000  Level FlightAware
03:47AM 29.0740 36.2110 271° West 426 490 40,000  Level FlightAware
03:48AM 29.0720 36.1300 268° West 426 490 40,000  Level FlightAware
03:48AM 29.0700 36.0620 268° West 426 490 40,000  Level FlightAware
03:49AM 29.0680 35.9960 268° West 426 490 40,000  Level FlightAware
03:50AM 29.0650 35.9270 267° West 426 490 40,000  Level FlightAware
03:50AM 29.0630 35.8590 268° West 426 490 40,000  Level FlightAware
03:51AM 29.0610 35.7900 268° West 426 490 40,000  Level FlightAware
03:51AM 29.0590 35.7210 268° West 426 490 40,000  Level FlightAware
03:52AM 29.0570 35.6500 268° West 426 490 40,000  Level FlightAware
03:53AM 29.0550 35.5810 268° West 426 490 40,000  Level FlightAware
03:53AM 29.0530 35.5120 268° West 426 490 40,000  Level FlightAware
03:54AM 29.0510 35.4430 268° West 426 490 40,000  Level FlightAware
03:54AM 29.0480 35.3740 267° West 426 490 40,000  Level FlightAware
03:55AM 29.0460 35.3050 268° West 426 490 40,000  Level FlightAware
03:56AM 29.0440 35.2360 268° West 426 490 40,000  Level FlightAware
03:56AM 29.0420 35.1670 268° West 426 490 40,000  Level FlightAware
03:57AM 29.0400 35.0980 268° West 426 490 40,000  Level FlightAware
03:59AM 29.1092 34.9228 294° West  Level Estimated
04:00AM 29.1515 34.8154 294° West  Level Estimated
04:01AM 29.1937 34.7079 294° West  Level Estimated
04:02AM 29.2358 34.6003 294° West  Level Estimated
04:03AM 29.2778 34.4926 294° West  Level Estimated
04:04AM 29.3198 34.3849 294° West  Level Estimated
04:05AM 29.3616 34.2771 294° West  Level Estimated
04:06AM 29.4034 34.1691 294° West  Level Estimated
04:07AM 29.4450 34.0611 294° West  Level Estimated
04:08AM 29.4866 33.9530 294° West  Level Estimated
04:09AM 29.5281 33.8448 294° West  Level Estimated
04:10AM 29.5695 33.7365 294° West  Level Estimated
04:11AM 29.6109 33.6281 294° West  Level Estimated
04:12AM 29.6521 33.5197 294° West  Level Estimated
04:13AM 29.6933 33.4111 294° West  Level Estimated
04:14AM 29.7343 33.3025 294° West  Level Estimated
04:15AM 29.7753 33.1938 293° West  Level Estimated
04:16AM 29.8162 33.0849 293° West  Level Estimated
04:17AM 29.8570 32.9760 293° West  Level Estimated
04:18AM 29.8977 32.8670 293° West  Level Estimated
04:19AM 29.9383 32.7580 293° West  Level Estimated
04:20AM 29.9788 32.6488 293° West  Level Estimated
04:21AM 30.0192 32.5395 293° West  Level Estimated
04:22AM 30.0596 32.4302 293° West  Level Estimated
04:23AM 30.0998 32.3207 293° West  Level Estimated
04:24AM 30.1400 32.2112 293° West  Level Estimated
04:25AM 30.1800 32.1016 293° West  Level Estimated
04:26AM 30.2200 31.9919 293° West  Level Estimated
04:27AM 30.2599 31.8821 293° West  Level Estimated
04:28AM 30.2997 31.7722 293° West  Level Estimated
04:29AM 30.3394 31.6622 293° West  Level Estimated
04:30AM 30.3790 31.5522 293° West  Level Estimated
04:31AM 30.4185 31.4420 293° West  Level Estimated
04:32AM 30.4580 31.3318 293° West  Level Estimated
04:33AM 30.4973 31.2214 293° West  Level Estimated
04:34AM 30.5365 31.1110 292° West  Level Estimated
04:35AM 30.5757 31.0005 292° West  Level Estimated
04:36AM 30.6147 30.8899 292° West  Level Estimated
04:37AM 30.6537 30.7792 292° West  Level Estimated
04:38AM 30.6926 30.6684 292° West  Level Estimated
04:39AM 30.7313 30.5576 292° West  Level Estimated
04:40AM 30.7700 30.4466 292° West  Level Estimated
04:41AM 30.8086 30.3356 292° West  Level Estimated
04:41AM 31.3430 29.6970 292° West 424 488 40,000  Level FlightAware
04:42AM 31.3830 29.6320 306° West 423 487 40,000  Level FlightAware
04:42AM 31.4230 29.5650 305° West 424 488 40,000  Level FlightAware
04:43AM 31.4700 29.4890 306° West 424 488 40,000  Level FlightAware
04:44AM 31.5100 29.4230 305° West 426 490 40,000  Level FlightAware
04:44AM 31.5460 29.3640 306° West 427 491 40,000  Level FlightAware
04:45AM 31.5870 29.2960 305° West 422 486 40,000  Level FlightAware
04:47AM 31.6535 29.0865 290° West  Level Estimated
04:47AM 31.7290 29.0600 290° West 40,000  Level FlightAware
04:47AM 31.7600 29.0060 304° West 430 495 40,000  Level FlightAware
04:48AM 31.8280 28.8950 306° West 429 494 40,000  Level FlightAware
04:49AM 31.8690 28.8250 305° West 429 494 40,000  Level FlightAware
04:49AM 31.9040 28.7640 304° West 429 494 40,000  Level FlightAware
04:50AM 31.9380 28.7040 304° West 429 494 40,000  Level FlightAware
04:51AM 31.9720 28.6450 304° West 429 494 40,000  Level FlightAware
04:51AM 32.0060 28.5860 304° West 429 494 40,000  Level FlightAware
04:52AM 32.0400 28.5250 303° West 429 494 40,000  Level FlightAware
04:52AM 32.0740 28.4650 304° West 429 494 40,000  Level FlightAware
04:53AM 32.1080 28.4060 304° West 429 494 40,000  Level FlightAware
04:54AM 32.2110 28.2560 309° West 40,000  Level FlightAware
04:54AM 32.2490 28.1960 307° West 436 502 40,000  Level FlightAware
04:55AM 32.2900 28.1270 305° West 436 502 40,000  Level FlightAware
04:55AM 32.3410 28.0450 306° West 429 494 40,000  Level FlightAware
04:56AM 32.3950 27.9530 305° West 429 494 40,000  Level FlightAware
04:57AM 32.4290 27.8940 304° West 429 494 40,000  Level FlightAware
04:58AM 32.4630 27.8340 304° West 429 494 40,000  Level FlightAware
04:58AM 32.4970 27.7740 304° West 429 494 40,000  Level FlightAware
04:59AM 32.5310 27.7150 304° West 429 494 40,000  Level FlightAware
04:59AM 32.5650 27.6550 304° West 429 494 40,000  Level FlightAware
05:00AM 32.6100 27.5750 304° West 429 494 40,000  Level FlightAware
05:01AM 32.6440 27.5150 304° West 429 494 40,000  Level FlightAware
05:01AM 32.6780 27.4550 304° West 429 494 40,000  Level FlightAware
05:02AM 32.7120 27.3960 304° West 429 494 40,000  Level FlightAware
05:03AM 32.7460 27.3360 304° West 429 494 40,000  Level FlightAware
05:03AM 32.7800 27.2760 304° West 429 494 40,000  Level FlightAware
05:04AM 32.8150 27.2140 304° West 429 494 40,000  Level FlightAware
05:04AM 32.8490 27.1540 304° West 429 494 40,000  Level FlightAware
05:05AM 32.8840 27.0930 304° West 429 494 40,000  Level FlightAware
05:06AM 32.9180 27.0330 304° West 429 494 40,000  Level FlightAware
05:08AM 32.9781 26.8070 288° West  Level Estimated
05:09AM 33.0089 26.6900 288° West  Level Estimated
05:10AM 33.0397 26.5729 287° West  Level Estimated
05:11AM 33.0704 26.4557 287° West  Level Estimated
05:12AM 33.1010 26.3384 287° West  Level Estimated
05:13AM 33.1315 26.2211 287° West  Level Estimated
05:14AM 33.1618 26.1036 287° West  Level Estimated
05:15AM 33.1920 25.9861 287° West  Level Estimated
05:16AM 33.2222 25.8685 287° West  Level Estimated
05:17AM 33.2522 25.7509 287° West  Level Estimated
05:18AM 33.2821 25.6331 287° West  Level Estimated
05:19AM 33.3119 25.5153 287° West  Level Estimated
05:20AM 33.3416 25.3974 287° West  Level Estimated
05:21AM 33.3712 25.2794 287° West  Level Estimated
05:22AM 33.4006 25.1613 287° West  Level Estimated
05:22AM 34.1090 24.7860 287° West 438 504 40,000  Level FlightAware
05:23AM 34.1270 24.7240 289° West 439 505 40,000  Level FlightAware
05:23AM 34.1470 24.6530 289° West 439 505 40,000  Level FlightAware
05:24AM 34.1680 24.5800 289° West 439 505 40,000  Level FlightAware
05:25AM 34.2060 24.4610 291° West 438 504 40,000  Level FlightAware
05:25AM 34.2270 24.3900 290° West 438 504 40,000  Level FlightAware
05:26AM 34.2510 24.3080 290° West 438 504 40,000  Level FlightAware
05:26AM 34.2730 24.2310 289° West 436 502 40,000  Level FlightAware
05:27AM 34.2940 24.1590 289° West 436 502 40,000  Level FlightAware
05:28AM 34.3140 24.0880 289° West 436 502 40,000  Level FlightAware
05:28AM 34.3430 23.9900 290° West 750 863 40,000  Level FlightAware
05:30AM 34.4130 23.7480 289° West 427 491 40,000  Level FlightAware
05:30AM 34.4350 23.6720 289° West 427 491 40,000  Level FlightAware
05:31AM 34.4570 23.5950 289° West 429 494 40,000  Level FlightAware
05:32AM 34.4770 23.5220 288° West 429 494 40,000  Level FlightAware
05:32AM 34.5010 23.4330 288° West 429 494 40,000  Level FlightAware
05:33AM 34.5200 23.3630 288° West 429 494 40,000  Level FlightAware
05:34AM 34.5390 23.2910 288° West 429 494 40,000  Level FlightAware
05:34AM 34.5580 23.2210 288° West 429 494 40,000  Level FlightAware
05:35AM 34.5770 23.1500 288° West 429 494 40,000  Level FlightAware
05:35AM 34.5950 23.0800 287° West 429 494 40,000  Level FlightAware
05:36AM 34.6140 23.0100 288° West 429 494 40,000  Level FlightAware
05:37AM 34.6330 22.9400 288° West 429 494 40,000  Level FlightAware
05:37AM 34.6520 22.8700 288° West 429 494 40,000  Level FlightAware
05:38AM 34.6880 22.6780 283° West 422 486 40,000  Level FlightAware
05:39AM 34.7110 22.5750 285° West 424 488 40,000  Level FlightAware
05:39AM 34.7270 22.5020 285° West 424 488 40,000  Level FlightAware
05:40AM 34.7420 22.4320 285° West 424 488 40,000  Level FlightAware
05:40AM 34.7580 22.3610 285° West 424 488 40,000  Level FlightAware
05:41AM 34.7740 22.2890 285° West 424 488 40,000  Level FlightAware
05:42AM 34.7890 22.2180 284° West 424 488 40,000  Level FlightAware
05:42AM 34.8050 22.1470 285° West 424 488 40,000  Level FlightAware
05:43AM 34.8200 22.0770 285° West 424 488 40,000  Level FlightAware
05:43AM 34.8360 22.0060 285° West 424 488 40,000  Level FlightAware
05:44AM 34.8520 21.9330 285° West 424 488 40,000  Level FlightAware
05:45AM 34.8680 21.8610 285° West 424 488 40,000  Level FlightAware
05:45AM 34.8830 21.7900 284° West 424 488 40,000  Level FlightAware
05:46AM 34.9000 21.7160 286° West 424 488 40,000  Level FlightAware
05:46AM 34.9150 21.6450 284° West 424 488 40,000  Level FlightAware
05:47AM 34.9310 21.5720 285° West 424 488 40,000  Level FlightAware
05:48AM 34.9470 21.5010 285° West 424 488 40,000  Level FlightAware
05:50AM 34.9882 21.2638 282° West  Level Estimated
05:51AM 35.0099 21.1377 282° West  Level Estimated
05:52AM 35.0314 21.0116 282° West  Level Estimated
05:53AM 35.0529 20.8854 282° West  Level Estimated
05:54AM 35.0742 20.7591 282° West  Level Estimated
05:55AM 35.0953 20.6328 282° West  Level Estimated
05:56AM 35.1164 20.5064 282° West  Level Estimated
05:57AM 35.1373 20.3799 281° West  Level Estimated
05:57AM 35.2400 20.0740 281° West 413 475 40,000  Level FlightAware
05:57AM 35.2540 19.9980 283° West 413 475 40,000  Level FlightAware
05:58AM 35.2670 19.9290 283° West 413 475 40,000  Level FlightAware
05:58AM 35.2800 19.8590 283° West 413 475 40,000  Level FlightAware
05:59AM 35.3050 19.7450 285° West 416 479 40,000  Level FlightAware
06:00AM 35.3230 19.6560 284° West 423 487 40,000  Level FlightAware
06:00AM 35.3360 19.5870 283° West 423 487 40,000  Level FlightAware
06:01AM 35.3490 19.5130 282° West 423 487 40,000  Level FlightAware
06:02AM 35.3340 19.5930 103° East 423 487 40,000  Level FlightAware
06:02AM 35.3950 19.2840 284° West 420 483 40,000  Level FlightAware
06:03AM 35.4120 19.1910 283° West 419 482 40,000  Level FlightAware
06:04AM 35.4260 19.1190 283° West 419 482 40,000  Level FlightAware
06:04AM 35.4390 19.0480 283° West 419 482 40,000  Level FlightAware
06:05AM 35.4630 18.9290 284° West 415 478 40,000  Level FlightAware
06:05AM 35.4770 18.8510 282° West 410 472 40,000  Level FlightAware
06:06AM 35.4930 18.7670 283° West 409 471 40,000  Level FlightAware
06:07AM 35.5080 18.6860 283° West 409 471 40,000  Level FlightAware
06:07AM 35.5240 18.6020 283° West 410 472 40,000  Level FlightAware
06:08AM 35.5360 18.5350 282° West 412 474 40,000  Level FlightAware
06:09AM 35.5590 18.4120 283° West 419 482 40,000  Level FlightAware
06:09AM 35.5730 18.3370 283° West 419 482 40,000  Level FlightAware
06:10AM 35.5920 18.2340 283° West 417 480 40,000  Level FlightAware
06:10AM 35.6060 18.1580 283° West 417 480 40,000  Level FlightAware
06:11AM 35.6220 18.0720 283° West 418 481 40,000  Level FlightAware
06:12AM 35.6350 17.9980 282° West 417 480 40,000  Level FlightAware
06:12AM 35.6500 17.9170 283° West 417 480 40,000  Level FlightAware
06:13AM 35.6650 17.8330 282° West 419 482 40,000  Level FlightAware
06:13AM 35.6810 17.7440 283° West 419 482 40,000  Level FlightAware
06:14AM 35.6940 17.6700 282° West 420 483 40,000  Level FlightAware
06:15AM 35.7080 17.5890 282° West 420 483 40,000  Level FlightAware
06:15AM 35.7230 17.5040 282° West 420 483 40,000  Level FlightAware
06:16AM 35.7370 17.4280 283° West 419 482 40,000  Level FlightAware
06:16AM 35.7510 17.3430 281° West 418 481 40,000  Level FlightAware
06:17AM 35.7660 17.2610 283° West 418 481 40,000  Level FlightAware
06:18AM 35.7800 17.1760 282° West 420 483 40,000  Level FlightAware
06:18AM 35.7940 17.1010 283° West 421 484 40,000  Level FlightAware
06:19AM 35.8080 17.0190 282° West 421 484 40,000  Level FlightAware
06:19AM 35.8230 16.9320 282° West 422 486 40,000  Level FlightAware
06:20AM 35.8360 16.8550 282° West 423 487 40,000  Level FlightAware
06:20AM 35.8500 16.7710 282° West 422 486 40,000  Level FlightAware
06:21AM 35.8640 16.6880 282° West 421 484 40,000  Level FlightAware
06:22AM 35.8770 16.6110 282° West 421 484 40,000  Level FlightAware
06:22AM 35.8920 16.5220 282° West 421 484 40,000  Level FlightAware
06:23AM 35.9050 16.4430 282° West 421 484 40,000  Level FlightAware
06:23AM 35.9180 16.3640 282° West 421 484 40,000  Level FlightAware
06:24AM 35.9330 16.2740 282° West 420 483 40,000  Level FlightAware
06:24AM 35.9450 16.2000 281° West 419 482 40,000  Level FlightAware
06:25AM 35.9590 16.1140 281° West 417 480 40,000  Level FlightAware
06:26AM 35.9720 16.0400 282° West 416 479 40,000  Level FlightAware
06:26AM 35.9870 15.9460 281° West 414 476 40,000  Level FlightAware
06:27AM 35.9990 15.8710 281° West 415 478 40,000  Level FlightAware
06:27AM 36.0120 15.7880 281° West 416 479 40,000  Level FlightAware
06:28AM 36.0260 15.7060 282° West 416 479 40,000  Level FlightAware
06:29AM 36.0390 15.6200 281° West 416 479 40,000  Level FlightAware
06:29AM 36.0510 15.5440 281° West 416 479 40,000  Level FlightAware
06:30AM 36.0640 15.4620 281° West 417 480 40,000  Level FlightAware
06:30AM 36.0780 15.3760 281° West 417 480 40,000  Level FlightAware
06:31AM 36.0900 15.2960 281° West 417 480 40,000  Level FlightAware
06:32AM 36.1030 15.2150 281° West 417 480 40,000  Level FlightAware
06:32AM 36.1160 15.1340 281° West 416 479 40,000  Level FlightAware
06:33AM 36.1270 15.0590 280° West 415 478 40,000  Level FlightAware
06:33AM 36.1400 14.9770 281° West 415 478 40,000  Level FlightAware
06:34AM 36.1530 14.8930 281° West 415 478 40,000  Level FlightAware
06:34AM 36.1660 14.8060 281° West 415 478 40,000  Level FlightAware
06:35AM 36.1780 14.7300 281° West 415 478 40,000  Level FlightAware
06:36AM 36.1900 14.6490 280° West 415 478 40,000  Level FlightAware
06:36AM 36.2030 14.5650 281° West 416 479 40,000  Level FlightAware
06:37AM 36.2160 14.4770 280° West 417 480 40,000  Level FlightAware
06:37AM 36.2270 14.4000 280° West 417 480 40,000  Level FlightAware
06:38AM 36.2390 14.3200 281° West 419 482 40,000  Level FlightAware
06:39AM 36.2520 14.2320 280° West 418 481 40,000  Level FlightAware
06:39AM 36.2640 14.1470 280° West 418 481 40,000  Level FlightAware
06:40AM 36.2750 14.0750 281° West 418 481 40,000  Level FlightAware
06:40AM 36.2870 13.9920 280° West 418 481 40,000  Level FlightAware
06:41AM 36.2990 13.9060 280° West 418 481 40,000  Level FlightAware
06:41AM 36.3120 13.8190 281° West 417 480 40,000  Level FlightAware
06:42AM 36.3220 13.7440 279° West 417 480 40,000  Level FlightAware
06:43AM 36.3350 13.6570 281° West 418 481 40,000  Level FlightAware
06:43AM 36.3470 13.5750 280° West 419 482 40,000  Level FlightAware
06:44AM 36.3590 13.4870 280° West 419 482 40,000  Level FlightAware
06:44AM 36.3690 13.4130 280° West 418 481 40,000  Level FlightAware
06:45AM 36.3810 13.3260 280° West 417 480 40,000  Level FlightAware
06:46AM 36.3930 13.2430 280° West 415 478 40,000  Level FlightAware
06:46AM 36.4030 13.1670 279° West 414 476 40,000  Level FlightAware
06:47AM 36.4150 13.0800 280° West 415 478 40,000  Level FlightAware
06:47AM 36.4260 13.0040 280° West 415 478 40,000  Level FlightAware
06:48AM 36.4370 12.9230 280° West 417 480 40,000  Level FlightAware
06:48AM 36.4490 12.8330 279° West 418 481 40,000  Level FlightAware
06:49AM 36.4590 12.7530 279° West 419 482 40,000  Level FlightAware
06:50AM 36.4710 12.6680 280° West 419 482 40,000  Level FlightAware
06:50AM 36.4820 12.5830 279° West 419 482 40,000  Level FlightAware
06:51AM 36.4920 12.5100 280° West 419 482 40,000  Level FlightAware
06:51AM 36.5030 12.4250 279° West 419 482 40,000  Level FlightAware
06:52AM 36.5140 12.3400 279° West 418 481 40,000  Level FlightAware
06:53AM 36.5250 12.2530 279° West 418 481 40,000  Level FlightAware
06:53AM 36.5360 12.1670 279° West 418 481 40,000  Level FlightAware
06:54AM 36.5460 12.0910 279° West 418 481 40,000  Level FlightAware
06:54AM 36.5580 12.0010 279° West 418 481 40,000  Level FlightAware
06:55AM 36.5670 11.9240 278° West 418 481 40,000  Level FlightAware
06:55AM 36.5780 11.8380 279° West 418 481 40,000  Level FlightAware
06:56AM 36.5880 11.7570 279° West 417 480 40,000  Level FlightAware
06:57AM 36.5990 11.6740 279° West 415 478 40,000  Level FlightAware
06:57AM 36.6080 11.5880 277° West 414 476 40,000  Level FlightAware
06:58AM 36.6150 11.5100 276° West 415 478 40,000  Level FlightAware
06:58AM 36.6220 11.4290 276° West 416 479 40,000  Level FlightAware
06:59AM 36.6300 11.3340 276° West 417 480 40,000  Level FlightAware
07:00AM 36.6360 11.2600 276° West 419 482 40,000  Level FlightAware
07:00AM 36.6440 11.1740 277° West 419 482 40,000  Level FlightAware
07:01AM 36.6510 11.0920 276° West 420 483 40,000  Level FlightAware
07:01AM 36.6580 11.0080 276° West 421 484 40,000  Level FlightAware
07:02AM 36.6650 10.9230 276° West 422 486 40,000  Level FlightAware
07:02AM 36.6730 10.8320 276° West 423 487 40,000  Level FlightAware
07:03AM 36.6790 10.7580 276° West 424 488 40,000  Level FlightAware
07:04AM 36.6870 10.6660 276° West 425 489 40,000  Level FlightAware
07:04AM 36.6940 10.5780 276° West 425 489 40,000  Level FlightAware
07:05AM 36.7010 10.4910 276° West 426 490 40,000  Level FlightAware
07:05AM 36.7070 10.4120 275° West 427 491 40,000  Level FlightAware
07:06AM 36.7140 10.3250 276° West 427 491 40,000  Level FlightAware
07:07AM 36.7210 10.2350 276° West 426 490 40,000  Level FlightAware
07:07AM 36.7270 10.1580 276° West 426 490 40,000  Level FlightAware
07:08AM 36.7340 10.0700 276° West 425 489 40,000  Level FlightAware
07:08AM 36.7410 9.9840 276° West 425 489 40,000  Level FlightAware
07:09AM 36.7470 9.8970 275° West 425 489 40,000  Level FlightAware
07:10AM 36.7550 9.7990 276° West 425 489 40,000  Level FlightAware
07:10AM 36.7610 9.7060 275° West 426 490 40,000  Level FlightAware
07:11AM 36.7680 9.6060 275° West 426 490 40,000  Level FlightAware
07:12AM 36.7760 9.5080 276° West 428 493 40,000  Level FlightAware
07:12AM 36.7820 9.4210 275° West 428 493 40,000  Level FlightAware
07:13AM 36.7880 9.3360 275° West 428 493 40,000  Level FlightAware
07:13AM 36.7940 9.2490 275° West 429 494 40,000  Level FlightAware
07:14AM 36.8000 9.1640 275° West 428 493 40,000  Level FlightAware
07:14AM 36.8060 9.0810 275° West 428 493 40,000  Level FlightAware
07:15AM 36.8120 8.9960 275° West 427 491 40,000  Level FlightAware
07:16AM 36.8160 8.8920 273° West 427 491 40,000  Level FlightAware
07:16AM 36.8150 8.8110 269° West 427 491 40,000  Level FlightAware
07:17AM 36.8150 8.7060 270° West 428 493 40,000  Level FlightAware
07:18AM 36.8150 8.6310 270° West 428 493 40,000  Level FlightAware
07:18AM 36.8150 8.5550 270° West 428 493 40,000  Level FlightAware
07:19AM 36.8150 8.4790 270° West 428 493 40,000  Level FlightAware
07:20AM 36.8150 8.4010 270° West 428 493 40,000  Level FlightAware
07:20AM 36.8150 8.3240 270° West 428 493 40,000  Level FlightAware
07:21AM 36.8150 8.2460 270° West 428 493 40,000  Level FlightAware
07:21AM 36.8150 8.1680 270° West 428 493 40,000  Level FlightAware
07:22AM 36.8150 8.0920 270° West 428 493 40,000  Level FlightAware
07:23AM 36.8150 8.0170 270° West 428 493 40,000  Level FlightAware
07:23AM 36.8150 7.9390 270° West 428 493 40,000  Level FlightAware
07:24AM 36.7980 7.6960 265° West 429 494 40,000  Level FlightAware
07:24AM 36.7980 7.6200 270° West 429 494 40,000  Level FlightAware
07:25AM 36.8080 7.5200 277° West 430 495 40,000  Level FlightAware
07:26AM 36.8160 7.4220 276° West 430 495 40,000  Level FlightAware
07:26AM 36.8230 7.3400 276° West 430 495 40,000  Level FlightAware
07:27AM 36.8310 7.2480 276° West 428 493 40,000  Level FlightAware
07:27AM 36.8380 7.1730 277° West 429 494 40,000  Level FlightAware
07:28AM 36.8430 7.0940 275° West 429 494 40,000  Level FlightAware
07:29AM 36.8530 6.9880 277° West 663 763 40,000  Level FlightAware
07:29AM 36.8610 6.8950 276° West 431 496 40,000  Level FlightAware
07:30AM 36.8660 6.8110 274° West 431 496 40,000  Level FlightAware
07:31AM 36.8770 6.7020 277° West 432 497 40,000  Level FlightAware
07:31AM 36.8840 6.6200 276° West 432 497 40,000  Level FlightAware
07:32AM 36.8910 6.5250 275° West 432 497 40,000  Level FlightAware
07:32AM 36.8960 6.4420 274° West 432 497 40,000  Level FlightAware
07:33AM 36.9000 6.3660 274° West 432 497 40,000  Level FlightAware
07:34AM 36.9040 6.2900 274° West 432 497 40,000  Level FlightAware
07:34AM 36.9090 6.2140 275° West 432 497 40,000  Level FlightAware
07:35AM 36.9130 6.1370 274° West 432 497 40,000  Level FlightAware
07:35AM 36.9170 6.0590 274° West 432 497 40,000  Level FlightAware
07:36AM 36.9210 5.9820 274° West 432 497 40,000  Level FlightAware
07:37AM 36.9260 5.9060 275° West 432 497 40,000  Level FlightAware
07:37AM 36.9300 5.8300 274° West 432 497 40,000  Level FlightAware
07:38AM 36.9340 5.7540 274° West 432 497 40,000  Level FlightAware
07:38AM 36.9390 5.6750 275° West 432 497 40,000  Level FlightAware
07:39AM 36.9430 5.5990 274° West 432 497 40,000  Level FlightAware
07:40AM 36.9470 5.5220 274° West 432 497 40,000  Level FlightAware
07:40AM 36.9510 5.4500 274° West 432 497 40,000  Level FlightAware
07:41AM 36.9560 5.3720 275° West 432 497 40,000  Level FlightAware
07:41AM 36.9600 5.2950 274° West 432 497 40,000  Level FlightAware
07:44AM 36.9266 5.0202 261° West  Level Estimated
07:45AM 36.9105 4.8895 261° West  Level Estimated
07:46AM 36.8943 4.7588 261° West  Level Estimated
07:47AM 36.8779 4.6282 261° West  Level Estimated
07:48AM 36.8614 4.4976 261° West  Level Estimated
07:49AM 36.8447 4.3671 261° West  Level Estimated
07:50AM 36.8279 4.2366 261° West  Level Estimated
07:51AM 36.8109 4.1062 261° West  Level Estimated
07:52AM 36.7938 3.9758 261° West  Level Estimated
07:53AM 36.7765 3.8456 261° West  Level Estimated
07:54AM 36.7592 3.7153 261° West  Level Estimated
07:55AM 36.7416 3.5851 260° West  Level Estimated
07:56AM 36.7239 3.4550 260° West  Level Estimated
07:57AM 36.7061 3.3250 260° West  Level Estimated
07:58AM 36.6910 3.2154 260° West  Level Estimated
07:59AM 36.6910 3.2154 338° Northwest  Level Estimated
08:00AM 36.6910 3.2154 338° Northwest  Level Estimated
08:01AM 36.6910 3.2154 338° Northwest  Level Estimated
08:02AM 36.6910 3.2154 338° Northwest  Level Estimated
08:03AM 36.6910 3.2154 338° Northwest  Level Estimated
08:04AM 36.6910 3.2154 338° Northwest  Level Estimated
08:05AM 36.6910 3.2154 338° Northwest  Level Estimated
08:06AM 36.6910 3.2154 338° Northwest  Level Estimated
08:07AM 36.6910 3.2154 338° Northwest  Level Estimated
08:08AM 36.6910 3.2154 338° Northwest  Level Estimated
08:09AM 36.6910 3.2154 338° Northwest  Level Estimated
08:10AM 36.6910 3.2154 338° Northwest  Level Estimated
08:11AM 36.6910 3.2154 338° Northwest  Level Estimated
08:12AM 36.6910 3.2154 338° Northwest  Level Estimated
08:13AM 36.6910 3.2154 338° Northwest  Level Estimated
08:14AM 36.6910 3.2154 338° Northwest  Level Estimated
08:15AM 36.6910 3.2154 338° Northwest  Level Estimated